createdAt,value
2022-11-26T00:02:18.563Z,95.50
2022-11-26T00:04:46.857Z,96.00
2022-11-26T00:07:18.751Z,96.70
2022-11-26T00:09:46.877Z,96.50
2022-11-26T00:12:18.800Z,97.40
2022-11-26T00:14:48.150Z,97.70
2022-11-26T00:17:17.788Z,97.40
2022-11-26T00:19:47.023Z,97.10
2022-11-26T00:22:24.106Z,96.70
2022-11-26T00:24:52.812Z,96.70
2022-11-26T00:27:23.563Z,94.40
2022-11-26T00:29:51.731Z,94.50
2022-11-26T00:32:22.285Z,91.70
2022-11-26T00:34:50.356Z,91.50
2022-11-26T00:37:22.129Z,91.20
2022-11-26T00:39:51.479Z,89.10
2022-11-26T00:42:20.654Z,87.60
2022-11-26T00:44:50.321Z,86.70
2022-11-26T00:47:18.529Z,85.90
2022-11-26T00:49:46.597Z,86.10
2022-11-26T00:52:33.959Z,84.90
2022-11-26T00:55:07.963Z,84.40
2022-11-26T00:57:36.823Z,83.90
2022-11-26T01:00:14.930Z,81.50
2022-11-26T01:02:43.050Z,81.10
2022-11-26T01:05:11.740Z,78.10
2022-11-26T01:07:41.115Z,77.30
2022-11-26T01:10:18.080Z,78.60
2022-11-26T01:12:46.647Z,77.30
2022-11-26T01:15:17.212Z,77.00
2022-11-26T01:17:45.271Z,75.60
2022-11-26T01:20:25.462Z,79.00
2022-11-26T01:22:54.957Z,77.30
2022-11-26T01:25:23.992Z,75.90
2022-11-26T01:27:52.208Z,76.20
2022-11-26T01:30:24.393Z,74.90
2022-11-26T01:32:52.796Z,74.70
2022-11-26T01:35:22.340Z,71.70
2022-11-26T01:37:50.832Z,71.80
2022-11-26T01:40:33.581Z,69.20
2022-11-26T01:43:06.316Z,65.50
2022-11-26T01:45:35.757Z,65.50
2022-11-26T01:48:11.571Z,65.10
2022-11-26T01:50:53.948Z,65.30
2022-11-26T01:53:44.578Z,64.70
2022-11-26T01:56:21.077Z,62.50
2022-11-26T01:58:52.732Z,64.00
2022-11-26T02:01:23.211Z,67.10
2022-11-26T02:03:58.206Z,69.50
2022-11-26T02:06:32.358Z,69.70
2022-11-26T02:09:03.490Z,68.50
2022-11-26T02:11:32.806Z,67.90
2022-11-26T02:14:04.046Z,69.10
2022-11-26T02:16:57.199Z,69.00
2022-11-26T02:19:58.928Z,70.20
2022-11-26T02:23:00.017Z,71.00
2022-11-26T02:25:49.338Z,70.60
2022-11-26T02:28:34.810Z,72.30
2022-11-26T02:31:10.233Z,72.90
2022-11-26T02:33:46.917Z,74.80
2022-11-26T02:36:20.564Z,78.70
2022-11-26T02:38:48.730Z,84.00
2022-11-26T02:41:16.839Z,85.80
2022-11-26T02:43:45.423Z,83.50
2022-11-26T02:46:19.343Z,87.00
2022-11-26T02:48:50.756Z,90.60
2022-11-26T02:51:23.872Z,91.40
2022-11-26T02:53:54.035Z,92.20
2022-11-26T02:56:25.552Z,91.10
2022-11-26T02:58:56.030Z,91.40
2022-11-26T03:01:31.823Z,90.90
2022-11-26T03:04:05.019Z,91.10
2022-11-26T03:06:35.389Z,91.40
2022-11-26T03:09:03.607Z,91.50
2022-11-26T03:11:31.908Z,92.00
2022-11-26T03:14:00.067Z,91.90
2022-11-26T03:16:30.162Z,90.50
2022-11-26T03:18:58.517Z,90.60
2022-11-26T03:21:26.708Z,90.50
2022-11-26T03:23:55.519Z,86.90
2022-11-26T03:26:23.656Z,83.70
2022-11-26T03:28:52.176Z,79.10
2022-11-26T03:31:20.534Z,78.50
2022-11-26T03:33:50.118Z,75.00
2022-11-26T03:36:17.995Z,72.20
2022-11-26T03:38:46.027Z,69.40
2022-11-26T03:41:14.071Z,63.90
2022-11-26T03:43:42.189Z,65.00
2022-11-26T03:46:10.320Z,64.90
2022-11-26T03:48:38.383Z,64.00
2022-11-26T03:51:08.095Z,63.30
2022-11-26T03:53:36.168Z,64.70
2022-11-26T03:56:04.470Z,66.90
2022-11-26T03:58:32.535Z,65.40
2022-11-26T04:01:00.708Z,67.40
2022-11-26T04:03:28.845Z,65.70
2022-11-26T04:05:56.919Z,67.90
2022-11-26T04:08:26.412Z,68.70
2022-11-26T04:10:54.572Z,66.50
2022-11-26T04:13:22.699Z,64.70
2022-11-26T04:15:50.807Z,65.00
2022-11-26T04:18:18.912Z,64.90
2022-11-26T04:20:51.563Z,65.00
2022-11-26T04:23:21.249Z,65.00
2022-11-26T04:25:50.844Z,65.40
2022-11-26T04:28:18.676Z,68.40
2022-11-26T04:30:46.771Z,68.80
2022-11-26T04:33:14.972Z,69.00
2022-11-26T04:35:43.361Z,72.30
2022-11-26T04:38:11.693Z,74.50
2022-11-26T04:40:40.329Z,73.60
2022-11-26T04:43:09.743Z,75.40
2022-11-26T04:45:37.915Z,76.40
2022-11-26T04:48:06.808Z,75.30
2022-11-26T04:50:34.961Z,77.80
2022-11-26T04:53:03.210Z,80.10
2022-11-26T04:55:31.505Z,80.70
2022-11-26T04:57:59.584Z,82.20
2022-11-26T05:00:29.397Z,84.80
2022-11-26T05:02:57.706Z,86.20
2022-11-26T05:05:25.794Z,85.60
2022-11-26T05:07:54.303Z,84.70
2022-11-26T05:10:22.539Z,85.50
2022-11-26T05:12:50.625Z,86.80
2022-11-26T05:15:18.728Z,87.50
2022-11-26T05:17:48.338Z,90.20
2022-11-26T05:20:16.232Z,90.20
2022-11-26T05:22:44.472Z,90.00
2022-11-26T05:25:12.724Z,89.40
2022-11-26T05:27:40.750Z,88.10
2022-11-26T05:30:10.083Z,87.00
2022-11-26T05:32:38.199Z,83.70
2022-11-26T05:35:08.390Z,86.60
2022-11-26T05:37:36.425Z,84.00
2022-11-26T05:40:05.914Z,83.20
2022-11-26T05:42:34.028Z,82.10
2022-11-26T05:45:02.425Z,82.10
2022-11-26T05:47:30.541Z,81.40
2022-11-26T05:49:58.773Z,82.00
2022-11-26T05:52:28.504Z,82.30
2022-11-26T05:54:56.663Z,77.50
2022-11-26T05:57:24.847Z,75.60
2022-11-26T05:59:52.876Z,71.90
2022-11-26T06:02:21.541Z,70.50
2022-11-26T06:04:49.666Z,69.80
2022-11-26T06:07:17.757Z,67.00
2022-11-26T06:09:47.215Z,65.00
2022-11-26T06:12:15.295Z,64.70
2022-11-26T06:14:43.755Z,64.80
2022-11-26T06:17:11.997Z,65.30
2022-11-26T06:19:40.587Z,65.80
2022-11-26T06:22:08.780Z,65.40
2022-11-26T06:24:37.297Z,63.20
2022-11-26T06:27:07.091Z,65.00
2022-11-26T06:29:35.302Z,63.90
2022-11-26T06:32:03.432Z,61.20
2022-11-26T06:34:31.520Z,62.90
2022-11-26T06:36:59.572Z,65.00
2022-11-26T06:39:27.749Z,63.80
2022-11-26T06:41:55.820Z,66.70
2022-11-26T06:44:25.228Z,68.50
2022-11-26T06:46:53.288Z,74.70
2022-11-26T06:49:21.623Z,75.70
2022-11-26T06:51:49.704Z,78.30
2022-11-26T06:54:17.805Z,78.00
2022-11-26T06:56:45.995Z,76.50
2022-11-26T06:59:14.301Z,75.90
2022-11-26T07:01:43.835Z,72.70
2022-11-26T07:04:12.667Z,72.60
2022-11-26T07:06:41.379Z,73.10
2022-11-26T07:09:11.361Z,78.30
2022-11-26T07:11:40.530Z,76.60
2022-11-26T07:14:08.997Z,76.80
2022-11-26T07:16:37.591Z,78.20
2022-11-26T07:19:07.468Z,80.80
2022-11-26T07:21:35.761Z,84.60
2022-11-26T07:24:04.080Z,79.20
2022-11-26T07:26:32.411Z,78.10
2022-11-26T07:29:00.774Z,81.80
2022-11-26T07:31:29.016Z,81.10
2022-11-26T07:33:57.707Z,86.60
2022-11-26T07:36:29.835Z,87.90
2022-11-26T07:38:59.101Z,84.70
2022-11-26T07:41:28.389Z,80.80
2022-11-26T07:43:56.949Z,78.50
2022-11-26T07:46:27.012Z,80.60
2022-11-26T07:48:56.283Z,83.70
2022-11-26T07:51:28.184Z,85.40
2022-11-26T07:53:57.154Z,85.20
2022-11-26T07:56:25.410Z,89.40
2022-11-26T07:58:53.968Z,90.20
2022-11-26T08:01:24.314Z,89.30
2022-11-26T08:03:53.059Z,89.20
2022-11-26T08:06:22.769Z,88.00
2022-11-26T08:08:53.239Z,65.90
2022-11-26T08:11:23.668Z,60.40
2022-11-26T08:13:55.195Z,70.30
2022-11-26T08:16:23.815Z,72.30
2022-11-26T08:18:54.795Z,76.50
2022-11-26T08:21:23.389Z,75.60
2022-11-26T08:23:53.336Z,72.70
2022-11-26T08:26:27.643Z,64.00
2022-11-26T08:29:01.563Z,62.10
2022-11-26T08:31:30.266Z,66.30
2022-11-26T08:33:58.989Z,63.70
2022-11-26T08:36:28.272Z,64.30
2022-11-26T08:38:58.199Z,63.10
2022-11-26T08:41:26.639Z,61.40
2022-11-26T08:44:10.153Z,64.80
2022-11-26T08:46:39.259Z,58.00
2022-11-26T08:49:10.524Z,50.80
2022-11-26T08:51:38.823Z,47.40
2022-11-26T08:54:08.480Z,48.30
2022-11-26T08:56:37.217Z,37.10
2022-11-26T08:59:05.348Z,29.40
2022-11-26T09:01:34.804Z,31.90
2022-11-26T09:04:03.328Z,38.00
2022-11-26T09:06:33.033Z,25.90
2022-11-26T09:09:15.041Z,26.90
2022-11-26T09:11:47.488Z,20.40
2022-11-26T09:14:16.968Z,21.10
2022-11-26T09:16:44.993Z,22.50
2022-11-26T09:19:14.755Z,20.20
2022-11-26T09:21:43.530Z,16.60
2022-11-26T09:24:11.681Z,11.90
2022-11-26T09:26:40.075Z,9.90
2022-11-26T09:29:11.496Z,22.80
2022-11-26T09:31:55.057Z,19.50
2022-11-26T09:34:27.959Z,5.40
2022-11-26T09:36:56.200Z,1.00
2022-11-26T09:39:24.228Z,1.00
2022-11-26T09:41:59.257Z,1.00
2022-11-26T09:44:53.045Z,1.00
2022-11-26T09:47:23.971Z,1.00
2022-11-26T09:50:02.024Z,1.00
2022-11-26T09:52:34.691Z,1.00
2022-11-26T09:55:13.650Z,1.00
2022-11-26T09:57:44.299Z,1.00
2022-11-26T10:00:24.908Z,1.00
2022-11-26T10:02:54.705Z,1.00
2022-11-26T10:05:38.303Z,1.00
2022-11-26T10:08:19.001Z,1.00
2022-11-26T10:10:53.725Z,1.00
2022-11-26T10:13:29.443Z,1.00
2022-11-26T10:16:09.141Z,2.10
2022-11-26T10:18:46.609Z,3.90
2022-11-26T10:21:32.529Z,7.80
2022-11-26T10:24:20.707Z,8.70
2022-11-26T10:26:49.695Z,9.50
2022-11-26T10:29:24.372Z,7.20
2022-11-26T10:31:58.759Z,1.00
2022-11-26T10:34:37.406Z,1.00
2022-11-26T10:37:07.264Z,1.00
2022-11-26T10:39:35.528Z,1.00
2022-11-26T10:42:10.559Z,1.00
2022-11-26T10:44:41.430Z,1.00
2022-11-26T10:47:27.177Z,1.00
2022-11-26T10:49:56.630Z,1.00
2022-11-26T10:52:28.380Z,1.00
2022-11-26T10:55:27.986Z,1.00
2022-11-26T10:57:59.204Z,1.00
2022-11-26T11:00:34.384Z,1.00
2022-11-26T11:03:05.849Z,1.00
2022-11-26T11:05:35.212Z,1.00
2022-11-26T11:08:03.377Z,1.00
2022-11-26T11:10:31.558Z,1.00
2022-11-26T11:13:10.297Z,1.00
2022-11-26T11:15:40.407Z,1.00
2022-11-26T11:18:20.461Z,1.00
2022-11-26T11:20:57.073Z,1.00
2022-11-26T11:23:45.740Z,1.00
2022-11-26T11:26:19.322Z,1.00
2022-11-26T11:28:50.050Z,1.00
2022-11-26T11:31:21.482Z,1.00
2022-11-26T11:33:52.463Z,1.00
2022-11-26T11:36:27.338Z,1.00
2022-11-26T11:38:57.352Z,1.00
2022-11-26T11:41:30.926Z,1.00
2022-11-26T11:44:06.905Z,1.00
2022-11-26T11:47:04.677Z,1.00
2022-11-26T11:49:46.472Z,1.00
2022-11-26T11:52:23.491Z,1.00
2022-11-26T11:55:00.162Z,1.00
2022-11-26T11:57:46.288Z,1.00
2022-11-26T12:00:18.097Z,1.00
2022-11-26T12:03:10.745Z,1.00
2022-11-26T12:05:49.879Z,1.00
2022-11-26T12:08:30.050Z,1.00
2022-11-26T12:11:09.969Z,1.00
2022-11-26T12:13:46.457Z,1.00
2022-11-26T12:16:17.988Z,1.00
2022-11-26T12:18:51.202Z,1.00
2022-11-26T12:21:28.288Z,1.00
2022-11-26T12:24:01.120Z,1.00
2022-11-26T12:26:33.905Z,1.00
2022-11-26T12:29:05.734Z,1.00
2022-11-26T12:31:40.059Z,1.00
2022-11-26T12:34:14.252Z,1.00
2022-11-26T12:36:53.041Z,1.00
2022-11-26T12:39:33.742Z,1.00
2022-11-26T12:42:06.662Z,1.00
2022-11-26T12:44:39.210Z,1.00
2022-11-26T12:47:14.100Z,1.00
2022-11-26T12:49:53.668Z,1.00
2022-11-26T12:52:29.882Z,1.00
2022-11-26T12:55:04.627Z,1.00
2022-11-26T12:57:39.304Z,1.00
2022-11-26T13:00:12.876Z,1.00
2022-11-26T13:02:43.559Z,1.00
2022-11-26T13:05:18.147Z,1.00
2022-11-26T13:08:00.881Z,1.00
2022-11-26T13:10:39.203Z,1.00
2022-11-26T13:13:18.158Z,1.00
2022-11-26T13:15:51.454Z,1.00
2022-11-26T13:18:28.911Z,1.00
2022-11-26T13:21:08.558Z,1.00
2022-11-26T13:24:00.669Z,1.00
2022-11-26T13:26:44.700Z,1.00
2022-11-26T13:29:50.732Z,1.00
2022-11-26T13:32:43.365Z,1.00
2022-11-26T13:35:23.207Z,1.00
2022-11-26T13:38:04.837Z,1.00
2022-11-26T13:40:58.963Z,1.70
2022-11-26T13:43:57.857Z,2.50
2022-11-26T13:46:28.762Z,2.60
2022-11-26T13:49:01.127Z,2.30
2022-11-26T13:51:35.137Z,4.80
2022-11-26T13:54:09.700Z,5.00
2022-11-26T13:56:41.211Z,5.40
2022-11-26T13:59:16.972Z,5.10
2022-11-26T14:01:45.589Z,5.30
2022-11-26T14:04:15.824Z,1.00
2022-11-26T14:07:19.638Z,3.00
2022-11-26T14:09:53.650Z,3.50
2022-11-26T14:12:24.711Z,3.30
2022-11-26T14:14:52.920Z,1.00
2022-11-26T14:17:27.202Z,1.10
2022-11-26T14:20:12.066Z,1.00
2022-11-26T14:22:40.699Z,1.00
2022-11-26T14:25:12.005Z,1.00
2022-11-26T14:27:44.720Z,1.00
2022-11-26T14:30:29.338Z,1.00
2022-11-26T14:33:13.829Z,1.00
2022-11-26T14:35:53.076Z,3.00
2022-11-26T14:38:26.128Z,1.00
2022-11-26T14:40:59.561Z,5.30
2022-11-26T14:43:29.687Z,5.20
2022-11-26T14:46:05.066Z,7.40
2022-11-26T14:48:36.913Z,6.70
2022-11-26T14:51:09.793Z,8.30
2022-11-26T14:53:44.628Z,9.60
2022-11-26T14:56:12.755Z,10.70
2022-11-26T14:58:45.932Z,12.00
2022-11-26T15:01:20.965Z,11.30
2022-11-26T15:03:56.941Z,13.40
2022-11-26T15:06:27.700Z,14.40
2022-11-26T15:09:15.000Z,14.60
2022-11-26T15:11:46.134Z,17.20
2022-11-26T15:14:22.086Z,20.10
2022-11-26T15:16:56.726Z,21.20
2022-11-26T15:19:25.441Z,22.90
2022-11-26T15:21:53.628Z,23.10
2022-11-26T15:24:21.934Z,25.20
2022-11-26T15:26:50.067Z,25.90
2022-11-26T15:29:34.361Z,27.10
2022-11-26T15:32:03.294Z,27.10
2022-11-26T15:34:33.195Z,25.60
2022-11-26T15:37:01.486Z,29.20
2022-11-26T15:39:31.858Z,25.50
2022-11-26T15:42:05.658Z,25.60
2022-11-26T15:44:42.427Z,25.50
2022-11-26T15:47:20.370Z,26.90
2022-11-26T15:49:52.023Z,25.90
2022-11-26T15:52:24.518Z,26.30
2022-11-26T15:55:16.256Z,29.40
2022-11-26T15:57:45.203Z,31.10
2022-11-26T16:00:23.952Z,35.60
2022-11-26T16:02:52.655Z,37.80
2022-11-26T16:05:28.650Z,36.40
2022-11-26T16:07:58.762Z,37.00
2022-11-26T16:10:31.181Z,35.00
2022-11-26T16:13:19.090Z,37.30
2022-11-26T16:15:52.930Z,42.40
2022-11-26T16:18:24.605Z,43.50
2022-11-26T16:21:03.334Z,48.80
2022-11-26T16:23:31.841Z,47.00
2022-11-26T16:26:24.598Z,48.70
2022-11-26T16:28:52.666Z,50.40
2022-11-26T16:31:22.968Z,54.60
2022-11-26T16:33:51.443Z,52.60
2022-11-26T16:36:24.833Z,53.50
2022-11-26T16:38:53.764Z,53.50
2022-11-26T16:41:23.433Z,56.00
2022-11-26T16:43:51.777Z,53.80
2022-11-26T16:46:23.672Z,50.70
2022-11-26T16:48:53.438Z,53.80
2022-11-26T16:51:21.591Z,52.60
2022-11-26T16:53:50.539Z,51.80
2022-11-26T16:56:23.448Z,48.40
2022-11-26T16:58:52.121Z,46.70
2022-11-26T17:01:21.624Z,46.70
2022-11-26T17:03:49.645Z,47.10
2022-11-26T17:06:22.853Z,47.50
2022-11-26T17:08:51.200Z,47.20
2022-11-26T17:11:19.540Z,46.50
2022-11-26T17:13:47.816Z,47.60
2022-11-26T17:16:18.348Z,51.90
2022-11-26T17:18:48.433Z,51.60
2022-11-26T17:21:17.455Z,49.30
2022-11-26T17:23:45.994Z,49.80
2022-11-26T17:26:22.117Z,50.00
2022-11-26T17:28:51.448Z,47.50
2022-11-26T17:31:19.705Z,48.30
2022-11-26T17:33:50.608Z,47.40
2022-11-26T17:36:21.969Z,45.60
2022-11-26T17:38:50.562Z,48.00
2022-11-26T17:41:19.283Z,49.80
2022-11-26T17:43:47.766Z,56.10
2022-11-26T17:46:18.125Z,56.90
2022-11-26T17:48:46.345Z,61.50
2022-11-26T17:51:16.303Z,65.40
2022-11-26T17:53:44.967Z,71.70
2022-11-26T17:56:18.333Z,71.50
2022-11-26T17:58:47.083Z,72.60
2022-11-26T18:01:15.900Z,75.10
2022-11-26T18:03:45.155Z,74.50
2022-11-26T18:06:18.372Z,74.30
2022-11-26T18:08:46.840Z,74.70
2022-11-26T18:11:16.831Z,75.60
2022-11-26T18:13:45.397Z,80.00
2022-11-26T18:16:14.179Z,81.20
2022-11-26T18:18:42.322Z,82.80
2022-11-26T18:21:10.731Z,82.70
2022-11-26T18:23:42.251Z,86.50
2022-11-26T18:26:17.561Z,87.80
2022-11-26T18:28:45.827Z,88.60
2022-11-26T18:31:15.564Z,89.30
2022-11-26T18:33:43.799Z,89.80
2022-11-26T18:36:12.598Z,90.70
2022-11-26T18:38:42.064Z,90.40
2022-11-26T18:41:09.988Z,89.30
2022-11-26T18:43:39.824Z,91.20
2022-11-26T18:46:15.261Z,92.20
2022-11-26T18:48:45.192Z,91.90
2022-11-26T18:51:13.868Z,91.80
2022-11-26T18:53:44.130Z,91.80
2022-11-26T18:56:14.537Z,91.90
2022-11-26T18:58:43.165Z,93.00
2022-11-26T19:01:15.886Z,91.70
2022-11-26T19:03:44.827Z,91.70
2022-11-26T19:06:16.052Z,92.60
2022-11-26T19:08:46.556Z,93.60
2022-11-26T19:11:17.754Z,93.80
2022-11-26T19:13:46.026Z,93.60
2022-11-26T19:16:16.954Z,91.90
2022-11-26T19:18:46.169Z,90.70
2022-11-26T19:21:19.744Z,89.40
2022-11-26T19:23:50.029Z,92.30
2022-11-26T19:26:18.606Z,93.30
2022-11-26T19:28:47.605Z,93.60
2022-11-26T19:31:18.546Z,93.20
2022-11-26T19:33:48.287Z,93.00
2022-11-26T19:36:17.776Z,92.90
2022-11-26T19:38:47.839Z,94.70
2022-11-26T19:41:15.882Z,95.10
2022-11-26T19:43:44.167Z,95.20
2022-11-26T19:46:13.566Z,95.30
2022-11-26T19:48:43.988Z,95.10
2022-11-26T19:51:13.633Z,94.00
2022-11-26T19:53:41.852Z,95.80
2022-11-26T19:56:17.681Z,95.90
2022-11-26T19:58:46.030Z,95.10
2022-11-26T20:01:16.351Z,95.30
2022-11-26T20:03:45.340Z,96.90
2022-11-26T20:06:16.348Z,96.30
2022-11-26T20:08:45.064Z,96.40
2022-11-26T20:11:15.149Z,96.40
2022-11-26T20:13:45.052Z,97.00
2022-11-26T20:16:16.048Z,97.40
2022-11-26T20:18:44.919Z,96.90
2022-11-26T20:21:15.576Z,96.00
2022-11-26T20:23:44.010Z,95.40
2022-11-26T20:26:17.802Z,94.60
2022-11-26T20:28:46.977Z,94.50
2022-11-26T20:31:20.489Z,95.10
2022-11-26T20:33:51.656Z,95.80
2022-11-26T20:36:20.798Z,95.40
2022-11-26T20:38:52.206Z,96.60
2022-11-26T20:41:22.101Z,96.60
2022-11-26T20:43:55.078Z,97.00
2022-11-26T20:46:25.313Z,96.50
2022-11-26T20:48:53.503Z,96.10
2022-11-26T20:51:22.660Z,96.70
2022-11-26T20:53:52.011Z,97.40
2022-11-26T20:56:23.023Z,97.50
2022-11-26T20:58:52.627Z,97.60
2022-11-26T21:01:21.243Z,97.60
2022-11-26T21:03:49.806Z,98.20
2022-11-26T21:06:20.165Z,97.70
2022-11-26T21:08:49.987Z,97.00
2022-11-26T21:11:18.854Z,97.20
2022-11-26T21:13:48.360Z,96.20
2022-11-26T21:16:17.507Z,96.20
2022-11-26T21:18:45.758Z,96.20
2022-11-26T21:21:15.942Z,96.10
2022-11-26T21:23:45.646Z,96.30
2022-11-26T21:26:17.597Z,96.20
2022-11-26T21:28:45.706Z,96.10
2022-11-26T21:31:17.721Z,97.00
2022-11-26T21:33:46.571Z,96.50
2022-11-26T21:36:16.574Z,97.50
2022-11-26T21:38:48.230Z,97.40
2022-11-26T21:41:17.067Z,97.20
2022-11-26T21:43:45.779Z,96.70
2022-11-26T21:46:17.181Z,96.40
2022-11-26T21:48:45.464Z,95.70
2022-11-26T21:51:17.209Z,95.30
2022-11-26T21:53:46.411Z,95.40
2022-11-26T21:56:17.572Z,95.60
2022-11-26T21:58:45.958Z,95.70
2022-11-26T22:01:17.593Z,95.30
2022-11-26T22:03:47.995Z,95.40
2022-11-26T22:06:16.834Z,95.00
2022-11-26T22:08:47.377Z,95.30
2022-11-26T22:11:17.368Z,95.30
2022-11-26T22:13:45.986Z,94.70
2022-11-26T22:16:17.947Z,94.30
2022-11-26T22:18:47.176Z,94.40
2022-11-26T22:21:17.648Z,94.60
2022-11-26T22:23:46.552Z,94.20
2022-11-26T22:26:15.162Z,93.80
2022-11-26T22:28:43.398Z,93.90
2022-11-26T22:31:13.156Z,94.10
2022-11-26T22:33:42.708Z,93.90
2022-11-26T22:36:11.146Z,93.80
2022-11-26T22:38:40.531Z,94.00
2022-11-26T22:41:10.402Z,94.40
2022-11-26T22:43:38.648Z,94.60
2022-11-26T22:46:07.990Z,94.30
2022-11-26T22:48:36.661Z,94.70
2022-11-26T22:51:06.622Z,94.50
2022-11-26T22:53:34.658Z,94.50
2022-11-26T22:56:03.983Z,94.40
2022-11-26T22:58:33.834Z,94.30
2022-11-26T23:01:03.663Z,94.10
2022-11-26T23:03:34.382Z,93.90
2022-11-26T23:06:09.597Z,94.10
2022-11-26T23:08:38.789Z,93.60
2022-11-26T23:11:08.672Z,94.80
2022-11-26T23:13:37.171Z,95.40
2022-11-26T23:16:08.469Z,94.00
2022-11-26T23:18:37.273Z,93.60
2022-11-26T23:21:09.061Z,93.00
2022-11-26T23:23:38.642Z,93.20
2022-11-26T23:26:07.365Z,94.60
2022-11-26T23:28:37.007Z,94.90
2022-11-26T23:31:08.257Z,95.70
2022-11-26T23:33:36.909Z,96.10
2022-11-26T23:36:05.796Z,97.50
2022-11-26T23:38:36.305Z,97.30
2022-11-26T23:41:06.540Z,97.80
2022-11-26T23:43:36.537Z,97.00
2022-11-26T23:46:06.897Z,96.30
2022-11-26T23:48:35.192Z,96.20
2022-11-26T23:51:07.636Z,96.20
2022-11-26T23:53:37.405Z,95.30
2022-11-26T23:56:07.465Z,94.20
2022-11-26T23:58:35.844Z,93.70
